createdAt,value
2018-08-27T00:01:00.869Z,65.03
2018-08-27T00:02:07.074Z,64.37
2018-08-27T00:03:13.540Z,63.91
2018-08-27T00:04:19.435Z,63.66
2018-08-27T00:05:25.688Z,64.44
2018-08-27T00:06:32.966Z,65.42
2018-08-27T00:07:39.338Z,65.33
2018-08-27T00:08:45.489Z,65.69
2018-08-27T00:09:51.419Z,66.56
2018-08-27T00:10:57.797Z,65.48
2018-08-27T00:12:04.096Z,65.84
2018-08-27T00:13:10.427Z,65.72
2018-08-27T00:14:16.692Z,66.02
2018-08-27T00:15:23.011Z,66.35
2018-08-27T00:16:29.340Z,66.01
2018-08-27T00:17:35.915Z,66.72
2018-08-27T00:18:42.286Z,66.72
2018-08-27T00:19:49.137Z,66.64
2018-08-27T00:20:55.732Z,66.83
2018-08-27T00:22:02.041Z,67.08
2018-08-27T00:23:08.376Z,67.75
2018-08-27T00:24:14.692Z,67.89
2018-08-27T00:25:20.979Z,68.13
2018-08-27T00:26:27.392Z,67.89
2018-08-27T00:27:33.376Z,67.98
2018-08-27T00:28:39.944Z,67.44
2018-08-27T00:29:46.196Z,68.00
2018-08-27T00:30:52.553Z,67.96
2018-08-27T00:31:58.845Z,67.82
2018-08-27T00:33:04.779Z,68.11
2018-08-27T00:34:11.167Z,68.72
2018-08-27T00:35:17.455Z,68.93
2018-08-27T00:36:23.705Z,68.73
2018-08-27T00:37:29.788Z,69.34
2018-08-27T00:38:36.678Z,68.68
2018-08-27T00:39:42.576Z,68.76
2018-08-27T00:40:49.048Z,68.58
2018-08-27T00:41:55.344Z,69.25
2018-08-27T00:43:01.779Z,69.04
2018-08-27T00:44:08.058Z,69.69
2018-08-27T00:45:14.384Z,69.81
2018-08-27T00:46:20.710Z,69.64
2018-08-27T00:47:27.296Z,69.18
2018-08-27T00:48:33.623Z,69.50
2018-08-27T00:49:40.052Z,69.45
2018-08-27T00:50:46.328Z,69.34
2018-08-27T00:51:52.867Z,69.67
2018-08-27T00:52:59.168Z,70.02
2018-08-27T00:54:05.474Z,69.73
2018-08-27T00:55:11.672Z,70.24
2018-08-27T00:56:18.050Z,70.21
2018-08-27T00:57:25.084Z,70.75
2018-08-27T00:58:31.339Z,70.29
2018-08-27T00:59:37.660Z,69.88
2018-08-27T01:00:43.872Z,70.25
2018-08-27T01:01:54.094Z,70.17
2018-08-27T01:03:00.508Z,70.33
2018-08-27T01:04:06.464Z,70.22
2018-08-27T01:05:12.909Z,69.96
2018-08-27T01:06:19.219Z,70.32
2018-08-27T01:07:25.510Z,70.33
2018-08-27T01:08:31.828Z,69.86
2018-08-27T01:09:37.973Z,70.77
2018-08-27T01:10:44.075Z,70.02
2018-08-27T01:11:50.388Z,70.49
2018-08-27T01:12:56.467Z,70.72
2018-08-27T01:14:02.930Z,70.08
2018-08-27T01:15:09.878Z,70.15
2018-08-27T01:16:15.791Z,70.71
2018-08-27T01:17:22.153Z,71.64
2018-08-27T01:18:28.428Z,70.69
2018-08-27T01:19:34.747Z,70.30
2018-08-27T01:20:41.059Z,70.16
2018-08-27T01:21:47.323Z,70.09
2018-08-27T01:22:53.571Z,69.96
2018-08-27T01:24:00.070Z,69.79
2018-08-27T01:25:05.711Z,69.90
2018-08-27T01:26:11.988Z,70.15
2018-08-27T01:27:18.221Z,70.32
2018-08-27T01:28:24.371Z,70.99
2018-08-27T01:29:30.253Z,70.84
2018-08-27T01:30:36.340Z,70.55
2018-08-27T01:31:42.329Z,70.34
2018-08-27T01:32:48.813Z,70.70
2018-08-27T01:33:56.247Z,70.33
2018-08-27T01:35:02.088Z,71.83
2018-08-27T01:36:08.337Z,71.86
2018-08-27T01:37:15.374Z,71.72
2018-08-27T01:38:21.679Z,71.61
2018-08-27T01:39:27.998Z,71.29
2018-08-27T01:40:34.270Z,71.82
2018-08-27T01:41:40.615Z,71.45
2018-08-27T01:42:46.952Z,71.22
2018-08-27T01:43:53.624Z,71.73
2018-08-27T01:45:00.079Z,71.56
2018-08-27T01:46:06.335Z,71.91
2018-08-27T01:47:12.656Z,71.69
2018-08-27T01:48:19.008Z,71.88
2018-08-27T01:49:25.328Z,72.50
2018-08-27T01:50:31.740Z,72.38
2018-08-27T01:51:38.095Z,72.84
2018-08-27T01:52:45.216Z,72.75
2018-08-27T01:53:51.465Z,72.49
2018-08-27T01:54:57.791Z,72.63
2018-08-27T01:56:03.839Z,72.48
2018-08-27T01:57:10.137Z,72.55
2018-08-27T01:58:16.714Z,72.56
2018-08-27T01:59:23.149Z,72.28
2018-08-27T02:00:29.404Z,72.50
2018-08-27T02:01:35.880Z,73.06
2018-08-27T02:02:42.195Z,72.85
2018-08-27T02:03:48.178Z,72.69
2018-08-27T02:04:54.150Z,73.00
2018-08-27T02:06:00.444Z,73.42
2018-08-27T02:07:06.416Z,73.24
2018-08-27T02:08:12.764Z,72.98
2018-08-27T02:09:19.147Z,73.35
2018-08-27T02:10:25.411Z,73.57
2018-08-27T02:11:32.888Z,72.95
2018-08-27T02:12:39.211Z,73.24
2018-08-27T02:13:45.311Z,73.52
2018-08-27T02:14:51.724Z,73.35
2018-08-27T02:15:57.993Z,73.34
2018-08-27T02:17:03.940Z,73.68
2018-08-27T02:18:10.313Z,73.49
2018-08-27T02:19:18.541Z,73.52
2018-08-27T02:20:25.952Z,73.08
2018-08-27T02:21:32.306Z,73.47
2018-08-27T02:22:38.669Z,72.62
2018-08-27T02:23:44.975Z,73.03
2018-08-27T02:24:51.194Z,73.45
2018-08-27T02:25:57.450Z,73.78
2018-08-27T02:27:03.604Z,74.05
2018-08-27T02:28:09.868Z,73.42
2018-08-27T02:29:16.655Z,73.35
2018-08-27T02:30:23.048Z,74.27
2018-08-27T02:31:28.637Z,73.32
2018-08-27T02:32:35.015Z,73.33
2018-08-27T02:33:41.057Z,73.67
2018-08-27T02:34:47.475Z,73.19
2018-08-27T02:35:53.708Z,73.37
2018-08-27T02:37:04.807Z,73.08
2018-08-27T02:38:11.338Z,73.10
2018-08-27T02:39:17.604Z,72.92
2018-08-27T02:40:23.415Z,73.05
2018-08-27T02:41:29.471Z,73.31
2018-08-27T02:42:44.265Z,72.99
2018-08-27T02:43:50.897Z,73.32
2018-08-27T02:44:57.148Z,73.29
2018-08-27T02:46:03.500Z,72.96
2018-08-27T02:47:13.500Z,72.98
2018-08-27T02:48:19.752Z,72.94
2018-08-27T02:49:26.098Z,72.71
2018-08-27T02:50:31.775Z,73.01
2018-08-27T02:51:38.105Z,72.73
2018-08-27T02:52:44.680Z,72.59
2018-08-27T02:53:50.786Z,72.08
2018-08-27T02:54:57.224Z,72.13
2018-08-27T02:56:03.583Z,72.08
2018-08-27T02:57:09.897Z,71.56
2018-08-27T02:58:15.929Z,71.35
2018-08-27T02:59:22.275Z,70.79
2018-08-27T03:00:28.277Z,69.94
2018-08-27T03:01:34.634Z,70.13
2018-08-27T03:02:41.200Z,70.50
2018-08-27T03:03:47.659Z,71.08
2018-08-27T03:04:53.965Z,71.28
2018-08-27T03:06:00.299Z,71.18
2018-08-27T03:07:06.559Z,70.99
2018-08-27T03:08:12.640Z,70.73
2018-08-27T03:09:18.969Z,70.98
2018-08-27T03:10:26.677Z,70.86
2018-08-27T03:11:32.968Z,70.48
2018-08-27T03:12:39.533Z,71.42
2018-08-27T03:13:45.877Z,70.92
2018-08-27T03:14:52.180Z,70.96
2018-08-27T03:15:58.553Z,70.87
2018-08-27T03:17:05.408Z,71.18
2018-08-27T03:18:11.775Z,70.91
2018-08-27T03:19:18.801Z,70.11
2018-08-27T03:20:24.698Z,70.17
2018-08-27T03:21:30.996Z,70.49
2018-08-27T03:22:37.319Z,70.06
2018-08-27T03:23:43.589Z,70.27
2018-08-27T03:24:49.968Z,69.42
2018-08-27T03:25:56.099Z,68.27
2018-08-27T03:27:02.561Z,68.22
2018-08-27T03:28:08.908Z,68.56
2018-08-27T03:29:15.147Z,67.01
2018-08-27T03:30:21.515Z,67.06
2018-08-27T03:31:27.847Z,67.39
2018-08-27T03:32:33.998Z,67.24
2018-08-27T03:33:40.328Z,66.76
2018-08-27T03:34:46.608Z,66.28
2018-08-27T03:35:52.976Z,65.42
2018-08-27T03:36:59.627Z,65.03
2018-08-27T03:38:05.727Z,64.53
2018-08-27T03:39:11.794Z,64.85
2018-08-27T03:40:18.170Z,65.79
2018-08-27T03:41:24.497Z,65.54
2018-08-27T03:42:30.848Z,65.22
2018-08-27T03:43:37.107Z,66.50
2018-08-27T03:44:43.682Z,66.68
2018-08-27T03:45:50.285Z,65.78
2018-08-27T03:46:56.626Z,65.92
2018-08-27T03:48:03.001Z,64.93
2018-08-27T03:49:09.280Z,64.99
2018-08-27T03:50:15.616Z,64.40
2018-08-27T03:51:21.900Z,65.17
2018-08-27T03:52:28.245Z,65.72
2018-08-27T03:53:34.518Z,66.13
2018-08-27T03:54:40.843Z,66.36
2018-08-27T03:55:47.393Z,66.60
2018-08-27T03:56:53.814Z,66.14
2018-08-27T03:58:00.134Z,66.29
2018-08-27T03:59:05.712Z,66.67
2018-08-27T04:00:12.096Z,66.81
2018-08-27T04:01:18.404Z,66.58
2018-08-27T04:02:24.768Z,65.29
2018-08-27T04:03:31.016Z,66.32
2018-08-27T04:04:37.580Z,66.53
2018-08-27T04:05:44.919Z,65.81
2018-08-27T04:06:51.180Z,66.16
2018-08-27T04:07:57.539Z,66.38
2018-08-27T04:09:03.276Z,66.67
2018-08-27T04:10:09.615Z,66.80
2018-08-27T04:11:15.919Z,66.89
2018-08-27T04:12:23.092Z,66.90
2018-08-27T04:13:29.669Z,66.72
2018-08-27T04:14:36.081Z,66.76
2018-08-27T04:15:42.288Z,66.80
2018-08-27T04:16:48.715Z,66.66
2018-08-27T04:17:55.068Z,67.12
2018-08-27T04:19:01.345Z,67.09
2018-08-27T04:20:07.708Z,66.69
2018-08-27T04:21:13.716Z,66.64
2018-08-27T04:23:24.819Z,66.29
2018-08-27T04:24:31.194Z,66.77
2018-08-27T04:25:37.417Z,66.74
2018-08-27T04:26:43.821Z,67.32
2018-08-27T04:27:50.248Z,67.35
2018-08-27T04:28:56.822Z,67.05
2018-08-27T04:30:03.834Z,66.87
2018-08-27T04:31:10.163Z,66.91
2018-08-27T04:32:16.596Z,67.05
2018-08-27T04:33:22.911Z,67.07
2018-08-27T04:34:29.229Z,66.96
2018-08-27T04:35:35.501Z,67.11
2018-08-27T04:36:41.922Z,67.11
2018-08-27T04:37:48.433Z,67.07
2018-08-27T04:38:54.784Z,67.08
2018-08-27T04:40:01.058Z,67.68
2018-08-27T04:41:06.690Z,67.67
2018-08-27T04:42:13.005Z,67.49
2018-08-27T04:43:19.273Z,67.46
2018-08-27T04:44:25.631Z,67.44
2018-08-27T04:45:31.917Z,67.42
2018-08-27T04:46:38.273Z,67.37
2018-08-27T04:47:44.545Z,68.16
2018-08-27T04:48:50.873Z,67.87
2018-08-27T04:49:57.179Z,67.63
2018-08-27T04:51:03.732Z,67.90
2018-08-27T04:52:09.984Z,68.01
2018-08-27T04:53:16.434Z,68.07
2018-08-27T04:54:22.743Z,67.66
2018-08-27T04:55:29.052Z,68.12
2018-08-27T04:56:35.329Z,67.41
2018-08-27T04:57:41.694Z,67.51
2018-08-27T04:58:47.721Z,66.91
2018-08-27T04:59:53.967Z,66.81
2018-08-27T05:01:00.344Z,67.16
2018-08-27T05:02:06.856Z,66.65
2018-08-27T05:03:13.187Z,66.59
2018-08-27T05:04:19.589Z,67.49
2018-08-27T05:05:25.818Z,67.02
2018-08-27T05:06:32.616Z,66.82
2018-08-27T05:07:38.867Z,66.76
2018-08-27T05:08:45.205Z,66.05
2018-08-27T05:09:51.611Z,65.94
2018-08-27T05:10:58.104Z,66.44
2018-08-27T05:12:04.459Z,65.88
2018-08-27T05:13:11.173Z,64.26
2018-08-27T05:14:19.855Z,65.33
2018-08-27T05:15:26.900Z,65.91
2018-08-27T05:16:33.152Z,64.67
2018-08-27T05:17:39.583Z,65.80
2018-08-27T05:18:45.860Z,65.24
2018-08-27T05:19:52.212Z,65.24
2018-08-27T05:20:58.595Z,64.78
2018-08-27T05:22:04.564Z,63.50
2018-08-27T05:23:10.938Z,63.86
2018-08-27T05:24:17.275Z,64.13
2018-08-27T05:25:23.528Z,63.76
2018-08-27T05:26:29.604Z,63.54
2018-08-27T05:27:35.959Z,62.54
2018-08-27T05:28:42.321Z,62.62
2018-08-27T05:29:48.574Z,61.71
2018-08-27T05:30:54.812Z,61.90
2018-08-27T05:32:02.021Z,62.01
2018-08-27T05:33:08.268Z,60.67
2018-08-27T05:34:14.547Z,60.49
2018-08-27T05:35:20.882Z,61.74
2018-08-27T05:36:27.168Z,61.86
2018-08-27T05:37:33.472Z,61.75
2018-08-27T05:38:39.961Z,61.36
2018-08-27T05:39:47.118Z,61.24
2018-08-27T05:40:53.336Z,60.82
2018-08-27T05:41:59.653Z,59.93
2018-08-27T05:43:06.165Z,60.97
2018-08-27T05:44:12.532Z,60.83
2018-08-27T05:45:18.775Z,60.77
2018-08-27T05:46:25.029Z,60.17
2018-08-27T05:47:31.340Z,60.44
2018-08-27T05:48:37.759Z,58.98
2018-08-27T05:49:44.028Z,59.24
2018-08-27T05:50:50.349Z,58.86
2018-08-27T05:51:56.661Z,58.83
2018-08-27T05:53:03.204Z,57.41
2018-08-27T05:54:10.064Z,57.36
2018-08-27T05:55:16.348Z,57.98
2018-08-27T05:56:22.767Z,56.67
2018-08-27T05:57:28.864Z,56.95
2018-08-27T05:58:35.284Z,55.85
2018-08-27T05:59:41.568Z,56.07
2018-08-27T06:00:47.871Z,56.28
2018-08-27T06:01:54.279Z,55.98
2018-08-27T06:03:01.433Z,56.33
2018-08-27T06:04:07.880Z,56.72
2018-08-27T06:05:14.382Z,55.69
2018-08-27T06:06:20.661Z,54.80
2018-08-27T06:07:27.008Z,54.13
2018-08-27T06:08:33.312Z,54.14
2018-08-27T06:09:40.270Z,53.42
2018-08-27T06:10:46.600Z,53.08
2018-08-27T06:11:52.934Z,53.82
2018-08-27T06:12:59.168Z,54.20
2018-08-27T06:14:05.489Z,53.02
2018-08-27T06:15:11.691Z,52.91
2018-08-27T06:16:18.247Z,53.02
2018-08-27T06:17:24.795Z,53.22
2018-08-27T06:18:31.176Z,53.11
2018-08-27T06:19:37.069Z,52.83
2018-08-27T06:20:43.324Z,52.24
2018-08-27T06:21:50.333Z,52.24
2018-08-27T06:22:57.014Z,51.58
2018-08-27T06:24:03.424Z,52.03
2018-08-27T06:25:09.762Z,52.93
2018-08-27T06:26:16.347Z,52.51
2018-08-27T06:27:22.584Z,51.32
2018-08-27T06:28:28.874Z,52.23
2018-08-27T06:29:35.185Z,51.39
2018-08-27T06:30:41.529Z,50.76
2018-08-27T06:31:47.794Z,51.02
2018-08-27T06:32:54.237Z,50.48
2018-08-27T06:34:00.540Z,50.53
2018-08-27T06:35:06.192Z,50.04
2018-08-27T06:36:12.836Z,50.31
2018-08-27T06:37:19.143Z,49.98
2018-08-27T06:38:25.432Z,50.26
2018-08-27T06:39:31.681Z,49.97
2018-08-27T06:40:37.977Z,49.40
2018-08-27T06:41:44.327Z,49.64
2018-08-27T06:42:50.724Z,49.55
2018-08-27T06:43:57.040Z,49.90
2018-08-27T06:45:02.954Z,49.55
2018-08-27T06:46:09.386Z,48.42
2018-08-27T06:47:15.840Z,48.11
2018-08-27T06:48:22.080Z,48.39
2018-08-27T06:49:28.392Z,48.23
2018-08-27T06:50:34.839Z,47.96
2018-08-27T06:51:41.372Z,46.92
2018-08-27T06:52:47.743Z,47.77
2018-08-27T06:53:54.728Z,49.03
2018-08-27T06:55:01.088Z,47.54
2018-08-27T06:56:07.023Z,47.14
2018-08-27T06:57:13.532Z,47.31
2018-08-27T06:58:20.723Z,45.95
2018-08-27T06:59:27.174Z,46.39
2018-08-27T07:00:33.437Z,45.67
2018-08-27T07:01:39.781Z,45.82
2018-08-27T07:02:46.159Z,45.33
2018-08-27T07:03:52.484Z,45.84
2018-08-27T07:04:58.820Z,45.57
2018-08-27T07:06:04.724Z,45.48
2018-08-27T07:07:10.999Z,46.07
2018-08-27T07:08:17.299Z,46.04
2018-08-27T07:09:23.892Z,46.20
2018-08-27T07:10:29.812Z,45.95
2018-08-27T07:11:35.897Z,44.90
2018-08-27T07:12:42.472Z,44.75
2018-08-27T07:13:48.910Z,45.18
2018-08-27T07:14:55.322Z,45.25
2018-08-27T07:16:01.581Z,44.80
2018-08-27T07:17:07.939Z,45.00
2018-08-27T07:18:14.371Z,45.02
2018-08-27T07:19:20.671Z,45.20
2018-08-27T07:20:26.696Z,45.50
2018-08-27T07:21:32.604Z,45.43
2018-08-27T07:22:38.843Z,45.58
2018-08-27T07:23:45.099Z,45.30
2018-08-27T07:24:51.391Z,44.86
2018-08-27T07:25:57.748Z,44.55
2018-08-27T07:27:04.054Z,44.29
2018-08-27T07:28:10.695Z,44.77
2018-08-27T07:29:17.775Z,44.30
2018-08-27T07:30:24.092Z,43.83
2018-08-27T07:31:30.371Z,43.54
2018-08-27T07:32:36.647Z,43.69
2018-08-27T07:33:42.900Z,43.22
2018-08-27T07:34:49.235Z,43.12
2018-08-27T07:35:55.547Z,43.39
2018-08-27T07:37:01.945Z,43.72
2018-08-27T07:38:08.248Z,43.87
2018-08-27T07:39:14.560Z,43.33
2018-08-27T07:40:21.635Z,42.97
2018-08-27T07:41:27.597Z,42.78
2018-08-27T07:42:33.907Z,42.60
2018-08-27T07:43:40.325Z,43.07
2018-08-27T07:44:46.866Z,42.77
2018-08-27T07:45:53.724Z,42.85
2018-08-27T07:47:00.081Z,42.37
2018-08-27T07:48:06.193Z,43.02
2018-08-27T07:49:12.484Z,42.60
2018-08-27T07:50:18.292Z,42.58
2018-08-27T07:51:24.361Z,43.38
2018-08-27T07:52:30.508Z,42.65
2018-08-27T07:53:36.548Z,43.05
2018-08-27T07:54:42.955Z,42.53
2018-08-27T07:55:49.241Z,42.78
2018-08-27T07:56:55.571Z,42.72
2018-08-27T07:58:01.896Z,42.29
2018-08-27T07:59:08.563Z,42.22
2018-08-27T08:00:14.712Z,41.97
2018-08-27T08:01:21.163Z,42.08
2018-08-27T08:02:27.073Z,42.06
2018-08-27T08:03:33.122Z,42.49
2018-08-27T08:04:39.033Z,42.80
2018-08-27T08:05:45.565Z,42.56
2018-08-27T08:06:51.870Z,42.54
2018-08-27T08:07:58.635Z,41.84
2018-08-27T08:09:04.072Z,41.77
2018-08-27T08:10:10.184Z,41.59
2018-08-27T08:11:17.125Z,41.78
2018-08-27T08:12:23.403Z,42.11
2018-08-27T08:13:29.034Z,41.96
2018-08-27T08:14:35.418Z,41.39
2018-08-27T08:15:41.986Z,41.37
2018-08-27T08:16:48.143Z,41.45
2018-08-27T08:17:54.449Z,41.72
2018-08-27T08:19:00.457Z,41.10
2018-08-27T08:20:06.907Z,41.61
2018-08-27T08:21:13.297Z,42.20
2018-08-27T08:22:19.420Z,41.87
2018-08-27T08:23:26.256Z,41.66
2018-08-27T08:24:32.448Z,42.03
2018-08-27T08:25:38.528Z,42.00
2018-08-27T08:26:44.749Z,42.19
2018-08-27T08:27:50.705Z,41.78
2018-08-27T08:28:56.540Z,42.39
2018-08-27T08:30:02.873Z,42.52
2018-08-27T08:31:08.481Z,42.25
2018-08-27T08:32:14.809Z,42.19
2018-08-27T08:33:21.189Z,41.94
2018-08-27T08:34:27.273Z,42.25
2018-08-27T08:35:33.674Z,42.07
2018-08-27T08:36:39.939Z,42.59
2018-08-27T08:37:46.232Z,42.43
2018-08-27T08:38:52.471Z,42.54
2018-08-27T08:39:59.028Z,42.07
2018-08-27T08:41:05.501Z,42.68
2018-08-27T08:42:12.149Z,41.63
2018-08-27T08:43:18.381Z,42.04
2018-08-27T08:44:24.771Z,41.78
2018-08-27T08:45:31.062Z,41.76
2018-08-27T08:46:37.337Z,42.67
2018-08-27T08:47:43.654Z,42.07
2018-08-27T08:48:50.579Z,42.27
2018-08-27T08:49:56.971Z,41.76
2018-08-27T08:51:03.280Z,40.81
2018-08-27T08:52:09.528Z,40.91
2018-08-27T08:53:15.843Z,41.44
2018-08-27T08:54:22.132Z,41.11
2018-08-27T08:55:28.488Z,41.91
2018-08-27T08:56:34.772Z,41.02
2018-08-27T08:57:41.130Z,41.35
2018-08-27T08:58:47.391Z,41.01
2018-08-27T08:59:53.857Z,41.38
2018-08-27T09:01:00.270Z,41.20
2018-08-27T09:02:06.540Z,41.79
2018-08-27T09:03:12.940Z,42.29
2018-08-27T09:04:19.144Z,41.12
2018-08-27T09:05:25.393Z,41.24
2018-08-27T09:06:31.709Z,41.56
2018-08-27T09:07:37.980Z,41.63
2018-08-27T09:08:44.096Z,41.04
2018-08-27T09:09:50.564Z,41.76
2018-08-27T09:10:56.944Z,41.43
2018-08-27T09:12:03.230Z,41.04
2018-08-27T09:13:09.542Z,41.41
2018-08-27T09:14:15.935Z,41.63
2018-08-27T09:15:22.203Z,41.43
2018-08-27T09:16:28.137Z,41.58
2018-08-27T09:17:34.543Z,41.17
2018-08-27T09:18:41.674Z,41.43
2018-08-27T09:19:47.868Z,42.07
2018-08-27T09:20:54.167Z,40.87
2018-08-27T09:22:00.143Z,40.88
2018-08-27T09:23:06.465Z,40.83
2018-08-27T09:24:12.805Z,40.89
2018-08-27T09:25:19.085Z,41.08
2018-08-27T09:26:31.068Z,41.53
2018-08-27T09:27:37.361Z,41.24
2018-08-27T09:28:43.683Z,41.06
2018-08-27T09:29:49.955Z,41.14
2018-08-27T09:30:56.292Z,42.42
2018-08-27T09:32:02.629Z,40.98
2018-08-27T09:33:09.115Z,40.81
2018-08-27T09:34:15.546Z,41.21
2018-08-27T09:35:21.826Z,41.28
2018-08-27T09:36:28.187Z,40.96
2018-08-27T09:37:34.180Z,40.85
2018-08-27T09:38:40.557Z,41.08
2018-08-27T09:39:46.873Z,41.23
2018-08-27T09:40:53.124Z,41.68
2018-08-27T09:41:59.900Z,41.44
2018-08-27T09:43:06.192Z,41.51
2018-08-27T09:44:12.376Z,41.98
2018-08-27T09:45:18.773Z,41.49
2018-08-27T09:46:25.077Z,40.66
2018-08-27T09:47:31.351Z,41.16
2018-08-27T09:48:37.337Z,40.97
2018-08-27T09:49:43.585Z,40.76
2018-08-27T09:50:49.892Z,40.83
2018-08-27T09:51:56.111Z,41.04
2018-08-27T09:53:02.622Z,40.64
2018-08-27T09:54:08.971Z,40.31
2018-08-27T09:55:15.243Z,40.57
2018-08-27T09:56:21.584Z,40.14
2018-08-27T09:57:27.833Z,40.24
2018-08-27T09:58:34.093Z,40.46
2018-08-27T09:59:40.680Z,40.73
2018-08-27T10:00:46.753Z,40.46
2018-08-27T10:01:52.910Z,40.19
2018-08-27T10:02:59.320Z,39.92
2018-08-27T10:04:05.968Z,39.56
2018-08-27T10:05:12.404Z,39.78
2018-08-27T10:06:18.683Z,39.09
2018-08-27T10:07:25.007Z,39.27
2018-08-27T10:08:31.286Z,39.34
2018-08-27T10:09:37.600Z,39.30
2018-08-27T10:10:43.914Z,39.30
2018-08-27T10:11:50.255Z,38.97
2018-08-27T10:12:56.844Z,38.98
2018-08-27T10:14:03.225Z,39.05
2018-08-27T10:15:09.113Z,39.55
2018-08-27T10:16:15.522Z,39.62
2018-08-27T10:17:21.784Z,40.06
2018-08-27T10:18:28.102Z,41.06
2018-08-27T10:19:34.407Z,40.36
2018-08-27T10:20:40.479Z,39.50
2018-08-27T10:21:47.064Z,39.58
2018-08-27T10:22:53.908Z,39.62
2018-08-27T10:24:00.197Z,40.60
2018-08-27T10:25:06.111Z,40.14
2018-08-27T10:26:12.520Z,39.67
2018-08-27T10:27:19.127Z,39.75
2018-08-27T10:28:25.420Z,39.53
2018-08-27T10:29:31.291Z,39.27
2018-08-27T10:30:37.944Z,39.52
2018-08-27T10:31:44.376Z,39.58
2018-08-27T10:32:50.663Z,39.68
2018-08-27T10:33:56.741Z,39.48
2018-08-27T10:35:02.960Z,39.72
2018-08-27T10:36:09.175Z,39.13
2018-08-27T10:37:15.517Z,38.55
2018-08-27T10:38:21.915Z,39.00
2018-08-27T10:39:28.311Z,40.49
2018-08-27T10:40:34.431Z,38.86
2018-08-27T10:41:40.375Z,38.73
2018-08-27T10:42:46.336Z,38.33
2018-08-27T10:43:52.553Z,38.90
2018-08-27T10:44:59.074Z,38.33
2018-08-27T10:46:04.856Z,38.50
2018-08-27T10:47:11.117Z,39.57
2018-08-27T10:48:17.531Z,38.13
2018-08-27T10:49:24.280Z,39.10
2018-08-27T10:50:30.554Z,38.80
2018-08-27T10:51:37.196Z,39.41
2018-08-27T10:52:43.494Z,39.42
2018-08-27T10:53:50.660Z,39.61
2018-08-27T10:54:57.457Z,39.39
2018-08-27T10:56:03.768Z,39.69
2018-08-27T10:57:09.869Z,39.83
2018-08-27T10:58:16.243Z,40.38
2018-08-27T10:59:22.666Z,40.57
2018-08-27T11:00:28.989Z,41.10
2018-08-27T11:01:35.348Z,41.26
2018-08-27T11:02:41.545Z,41.45
2018-08-27T11:03:47.837Z,41.60
2018-08-27T11:04:54.292Z,40.81
2018-08-27T11:06:00.561Z,40.57
2018-08-27T11:07:06.272Z,40.98
2018-08-27T11:08:12.241Z,40.76
2018-08-27T11:09:18.554Z,40.72
2018-08-27T11:10:24.870Z,40.44
2018-08-27T11:11:31.176Z,41.21
2018-08-27T11:12:37.654Z,40.65
2018-08-27T11:13:44.005Z,40.12
2018-08-27T11:14:51.296Z,40.15
2018-08-27T11:15:57.258Z,40.25
2018-08-27T11:17:03.512Z,40.65
2018-08-27T11:18:09.777Z,40.53
2018-08-27T11:19:16.088Z,40.29
2018-08-27T11:20:22.202Z,40.54
2018-08-27T11:21:29.133Z,40.21
2018-08-27T11:22:35.125Z,40.28
2018-08-27T11:23:41.608Z,40.29
2018-08-27T11:24:47.880Z,40.55
2018-08-27T11:25:54.159Z,41.53
2018-08-27T11:27:00.389Z,41.32
2018-08-27T11:28:06.695Z,41.00
2018-08-27T11:29:12.987Z,40.88
2018-08-27T11:30:19.319Z,41.16
2018-08-27T11:31:27.577Z,41.13
2018-08-27T11:32:33.896Z,41.58
2018-08-27T11:33:40.603Z,41.69
2018-08-27T11:34:46.956Z,41.80
2018-08-27T11:35:53.858Z,42.21
2018-08-27T11:37:00.179Z,41.28
2018-08-27T11:38:05.815Z,41.24
2018-08-27T11:39:11.412Z,41.29
2018-08-27T11:40:17.843Z,41.24
2018-08-27T11:41:24.170Z,40.39
2018-08-27T11:42:30.534Z,40.11
2018-08-27T11:43:37.623Z,40.59
2018-08-27T11:44:43.664Z,41.03
2018-08-27T11:45:49.968Z,40.74
2018-08-27T11:46:56.228Z,40.76
2018-08-27T11:48:02.581Z,40.92
2018-08-27T11:49:08.535Z,40.90
2018-08-27T11:50:14.806Z,41.99
2018-08-27T11:51:21.290Z,42.32
2018-08-27T11:52:27.633Z,41.96
2018-08-27T11:53:35.715Z,42.15
2018-08-27T11:54:41.911Z,41.81
2018-08-27T11:55:48.160Z,41.87
2018-08-27T11:56:54.378Z,41.55
2018-08-27T11:58:00.718Z,41.97
2018-08-27T11:59:07.004Z,42.32
2018-08-27T12:00:13.076Z,42.17
2018-08-27T12:01:19.099Z,42.51
2018-08-27T12:02:25.973Z,42.95
2018-08-27T12:03:32.281Z,42.93
2018-08-27T12:04:38.325Z,43.24
2018-08-27T12:05:44.699Z,42.96
2018-08-27T12:06:50.981Z,43.46
2018-08-27T12:07:57.327Z,43.62
2018-08-27T12:09:03.194Z,44.08
2018-08-27T12:10:09.127Z,43.98
2018-08-27T12:11:15.507Z,44.29
2018-08-27T12:12:22.395Z,45.01
2018-08-27T12:13:28.705Z,45.34
2018-08-27T12:14:34.939Z,45.35
2018-08-27T12:15:41.262Z,45.61
2018-08-27T12:16:48.727Z,45.85
2018-08-27T12:17:55.540Z,45.84
2018-08-27T12:19:01.856Z,46.01
2018-08-27T12:20:07.497Z,46.28
2018-08-27T12:21:13.813Z,45.80
2018-08-27T12:22:21.080Z,45.46
2018-08-27T12:23:27.438Z,45.97
2018-08-27T12:24:33.750Z,45.90
2018-08-27T12:25:39.820Z,45.82
2018-08-27T12:26:46.148Z,45.46
2018-08-27T12:27:52.515Z,45.59
2018-08-27T12:28:58.760Z,45.23
2018-08-27T12:30:04.492Z,45.54
2018-08-27T12:31:11.244Z,45.92
2018-08-27T12:32:17.619Z,45.55
2018-08-27T12:33:23.937Z,45.65
2018-08-27T12:34:30.217Z,45.47
2018-08-27T12:35:36.836Z,45.39
2018-08-27T12:36:43.624Z,45.82
2018-08-27T12:37:49.927Z,45.99
2018-08-27T12:38:56.519Z,45.92
2018-08-27T12:40:02.865Z,46.18
2018-08-27T12:41:09.579Z,46.82
2018-08-27T12:42:16.042Z,45.99
2018-08-27T12:43:22.371Z,46.05
2018-08-27T12:44:29.133Z,45.85
2018-08-27T12:45:35.437Z,46.15
2018-08-27T12:46:41.645Z,46.46
2018-08-27T12:47:47.914Z,46.25
2018-08-27T12:48:54.236Z,46.41
2018-08-27T12:50:00.987Z,46.34
2018-08-27T12:51:06.905Z,46.23
2018-08-27T12:52:13.147Z,46.06
2018-08-27T12:53:19.493Z,46.27
2018-08-27T12:54:25.806Z,46.65
2018-08-27T12:55:32.084Z,46.35
2018-08-27T12:56:38.078Z,46.00
2018-08-27T12:57:44.304Z,46.49
2018-08-27T12:58:50.679Z,46.02
2018-08-27T12:59:58.717Z,46.63
2018-08-27T13:01:05.144Z,46.25
2018-08-27T13:02:11.552Z,46.10
2018-08-27T13:03:17.828Z,46.15
2018-08-27T13:04:24.111Z,46.13
2018-08-27T13:05:30.247Z,46.46
2018-08-27T13:06:36.577Z,46.42
2018-08-27T13:07:43.017Z,46.50
2018-08-27T13:08:52.131Z,46.44
2018-08-27T13:09:58.335Z,46.01
2018-08-27T13:11:04.288Z,46.28
2018-08-27T13:12:10.680Z,45.97
2018-08-27T13:13:17.008Z,45.79
2018-08-27T13:14:23.303Z,45.78
2018-08-27T13:15:29.622Z,45.56
2018-08-27T13:16:35.940Z,45.30
2018-08-27T13:17:42.787Z,45.48
2018-08-27T13:18:49.122Z,45.17
2018-08-27T13:19:55.676Z,45.41
2018-08-27T13:21:01.968Z,46.00
2018-08-27T13:22:08.181Z,46.02
2018-08-27T13:23:14.484Z,45.69
2018-08-27T13:24:20.728Z,45.57
2018-08-27T13:25:26.833Z,45.47
2018-08-27T13:26:33.338Z,45.49
2018-08-27T13:27:40.292Z,45.68
2018-08-27T13:28:46.599Z,45.97
2018-08-27T13:29:52.875Z,46.46
2018-08-27T13:30:59.506Z,47.00
2018-08-27T13:32:05.864Z,47.47
2018-08-27T13:33:12.163Z,47.57
2018-08-27T13:34:18.571Z,48.04
2018-08-27T13:35:24.876Z,47.72
2018-08-27T13:36:31.322Z,47.49
2018-08-27T13:37:37.667Z,47.09
2018-08-27T13:38:44.524Z,47.00
2018-08-27T13:39:50.822Z,46.90
2018-08-27T13:40:56.912Z,46.86
2018-08-27T13:42:03.241Z,46.78
2018-08-27T13:43:09.544Z,46.24
2018-08-27T13:44:15.101Z,46.14
2018-08-27T13:45:21.383Z,45.80
2018-08-27T13:46:28.132Z,45.57
2018-08-27T13:47:34.224Z,45.69
2018-08-27T13:48:41.062Z,46.15
2018-08-27T13:49:47.247Z,45.67
2018-08-27T13:50:53.199Z,45.70
2018-08-27T13:51:58.981Z,45.65
2018-08-27T13:53:04.558Z,46.15
2018-08-27T13:54:10.955Z,45.17
2018-08-27T13:55:17.981Z,45.68
2018-08-27T13:56:24.607Z,45.02
2018-08-27T13:57:31.147Z,44.99
2018-08-27T13:58:37.415Z,44.99
2018-08-27T13:59:43.748Z,45.91
2018-08-27T14:00:50.433Z,45.40
2018-08-27T14:01:56.643Z,44.75
2018-08-27T14:03:02.898Z,44.48
2018-08-27T14:04:08.883Z,44.46
2018-08-27T14:05:15.218Z,44.64
2018-08-27T14:06:22.021Z,45.11
2018-08-27T14:07:28.511Z,45.34
2018-08-27T14:08:34.751Z,45.46
2018-08-27T14:09:41.063Z,45.19
2018-08-27T14:10:47.334Z,44.83
2018-08-27T14:11:54.001Z,44.78
2018-08-27T14:13:00.289Z,44.84
2018-08-27T14:14:06.595Z,45.54
2018-08-27T14:15:12.656Z,45.41
2018-08-27T14:16:19.178Z,44.64